| time (UTC) | temp C | wind direction | speed KPH | gust KPH | rain 1hr cm | rain 24hr cm | rain mn cm | humidity % | barometer mb |
| 20260507084907 | 11 | 319 | 3.2 | 9.7 | 0.00 | 0.00 | 0.00 | 43 | 1016.5 |
| 20260507083906 | 11 | 232 | 3.2 | 9.7 | 0.00 | 0.00 | 0.00 | 43 | 1016.5 |
| 20260507082904 | 10 | 331 | 4.8 | 11.3 | 0.00 | 0.00 | 0.00 | 47 | 1016.3 |
| 20260507081907 | 10 | 218 | 4.8 | 12.9 | 0.00 | 0.00 | 0.00 | 45 | 1016.3 |
| 20260507080907 | 10 | 316 | 3.2 | 8.0 | 0.00 | 0.00 | 0.00 | 44 | 1016.2 |
| 20260507075915 | 10 | 334 | 3.2 | 14.5 | 0.00 | 0.00 | 0.00 | 46 | 1016.2 |
| 20260507074907 | 10 | 254 | 1.6 | 9.7 | 0.00 | 0.00 | 0.00 | 50 | 1016.1 |
| 20260507073904 | 10 | 44 | 3.2 | 9.7 | 0.00 | 0.00 | 0.00 | 50 | 1016.1 |
| 20260507072907 | 10 | 276 | 1.6 | 8.0 | 0.00 | 0.00 | 0.00 | 51 | 1016.0 |
| 20260507071903 | 8 | 311 | 3.2 | 11.3 | 0.00 | 0.00 | 0.00 | 53 | 1016.0 |
| 20260507070904 | 8 | 313 | 1.6 | 9.7 | 0.00 | 0.00 | 0.00 | 53 | 1016.0 |
| 20260507065909 | 8 | 259 | 4.8 | 14.5 | 0.00 | 0.00 | 0.00 | 54 | 1016.0 |
| 20260507064906 | 7 | 245 | 3.2 | 12.9 | 0.00 | 0.00 | 0.00 | 54 | 1016.0 |
| 20260507063904 | 7 | 339 | 3.2 | 9.7 | 0.00 | 0.00 | 0.00 | 56 | 1015.9 |
| 20260507062906 | 6 | 304 | 4.8 | 9.7 | 0.00 | 0.00 | 0.00 | 52 | 1015.8 |
| 20260507061906 | 6 | 274 | 3.2 | 9.7 | 0.00 | 0.00 | 0.00 | 52 | 1015.9 |
| 20260507060909 | 6 | 212 | 3.2 | 11.3 | 0.00 | 0.00 | 0.00 | 53 | 1015.8 |
| 20260507055909 | 6 | 248 | 4.8 | 9.7 | 0.00 | 0.00 | 0.00 | 55 | 1015.8 |
| 20260507054907 | 5 | 228 | 3.2 | 8.0 | 0.00 | 0.00 | 0.00 | 61 | 1015.8 |
| 20260507053905 | 5 | 266 | 1.6 | 6.4 | 0.00 | 0.00 | 0.00 | 67 | 1015.7 |
| 20260507052907 | 4 | 240 | 1.6 | 6.4 | 0.00 | 0.00 | 0.00 | 74 | 1015.5 |
| 20260507051904 | 3 | 132 | 1.6 | 3.2 | 0.00 | 0.00 | 0.00 | 79 | 1015.5 |
| 20260507045904 | 1 | 125 | 0.0 | 0.0 | 0.00 | 0.00 | 0.00 | 86 | 1015.2 |
| 20260507044906 | 1 | 124 | 0.0 | 0.0 | 0.00 | 0.00 | 0.00 | 86 | 1014.9 |
| 20260507043907 | 1 | 124 | 0.0 | 0.0 | 0.00 | 0.00 | 0.00 | 87 | 1014.9 |
| 20260507042906 | 1 | 124 | 0.0 | 0.0 | 0.00 | 0.00 | 0.00 | 87 | 1014.8 |
| 20260507041907 | 0 | 124 | 0.0 | 0.0 | 0.00 | 0.00 | 0.00 | 87 | 1014.8 |
| 20260507040906 | 0 | 124 | 0.0 | 0.0 | 0.00 | 0.00 | 0.00 | 87 | 1014.7 |
| 20260507035906 | 0 | 124 | 0.0 | 0.0 | 0.00 | 0.00 | 0.00 | 88 | 1014.6 |
| 20260507034908 | 0 | 124 | 0.0 | 0.0 | 0.00 | 0.00 | 0.00 | 87 | 1014.3 |
| 20260507033907 | 0 | 124 | 0.0 | 0.0 | 0.00 | 0.00 | 0.00 | 86 | 1014.3 |
| 20260507032906 | 0 | 124 | 0.0 | 0.0 | 0.00 | 0.00 | 0.00 | 85 | 1014.3 |
| 20260507031909 | 0 | 124 | 0.0 | 0.0 | 0.00 | 0.00 | 0.00 | 84 | 1014.2 |
| 20260507030913 | 0 | 124 | 0.0 | 0.0 | 0.00 | 0.00 | 0.00 | 81 | 1014.2 |
| 20260507025904 | 0 | 124 | 0.0 | 0.0 | 0.00 | 0.00 | 0.00 | 81 | 1014.1 |
| 20260507024903 | 0 | 124 | 0.0 | 0.0 | 0.00 | 0.00 | 0.00 | 80 | 1014.1 |
| 20260507023907 | 0 | 124 | 0.0 | 0.0 | 0.00 | 0.00 | 0.00 | 80 | 1014.1 |
| 20260507022910 | 0 | 124 | 0.0 | 0.0 | 0.00 | 0.00 | 0.00 | 80 | 1014.1 |
| 20260507021907 | 0 | 124 | 0.0 | 0.0 | 0.00 | 0.00 | 0.00 | 79 | 1014.1 |
| 20260507020903 | 0 | 124 | 0.0 | 0.0 | 0.00 | 0.00 | 0.00 | 79 | 1014.1 |
| 20260507015906 | 0 | 124 | 0.0 | 0.0 | 0.00 | 0.00 | 0.00 | 79 | 1014.2 |
| 20260507014905 | 0 | 124 | 0.0 | 0.0 | 0.00 | 0.00 | 0.00 | 78 | 1014.2 |
| 20260507013903 | 0 | 124 | 0.0 | 0.0 | 0.00 | 0.00 | 0.00 | 78 | 1014.2 |
| 20260507012906 | 0 | 124 | 0.0 | 0.0 | 0.00 | 0.00 | 0.00 | 78 | 1014.2 |
| 20260507011849 | 0 | 124 | 0.0 | 0.0 | 0.00 | 0.00 | 0.00 | 77 | 1014.1 |
| 20260507010840 | 1 | 124 | 0.0 | 0.0 | 0.00 | 0.00 | 0.00 | 78 | 1014.1 |
| 20260507005832 | 1 | 124 | 0.0 | 0.0 | 0.00 | 0.00 | 0.00 | 78 | 1014.0 |
| 20260507004832 | 1 | 124 | 0.0 | 0.0 | 0.00 | 0.00 | 0.00 | 78 | 1014.1 |
| 20260507003832 | 1 | 124 | 0.0 | 0.0 | 0.00 | 0.00 | 0.00 | 77 | 1014.1 |
| 20260507002832 | 1 | 124 | 0.0 | 0.0 | 0.00 | 0.00 | 0.00 | 77 | 1014.1 |
| 20260507001832 | 1 | 124 | 0.0 | 0.0 | 0.00 | 0.00 | 0.00 | 78 | 1014.1 |
| 20260507000835 | 1 | 124 | 0.0 | 0.0 | 0.00 | 0.00 | 0.00 | 78 | 1014.1 |
| 20260506235834 | 1 | 124 | 0.0 | 0.0 | 0.00 | 0.00 | 0.00 | 77 | 1014.1 |
| 20260506234832 | 1 | 124 | 0.0 | 0.0 | 0.00 | 0.00 | 0.00 | 76 | 1014.1 |
| 20260506233825 | 1 | 124 | 0.0 | 1.6 | 0.00 | 0.00 | 0.00 | 75 | 1014.1 |
| 20260506232817 | 0 | 124 | 0.0 | 1.6 | 0.00 | 0.00 | 0.00 | 74 | 1014.2 |
| 20260506231812 | 0 | 124 | 0.0 | 0.0 | 0.00 | 0.00 | 0.00 | 75 | 1014.2 |
| 20260506230804 | 1 | 124 | 0.0 | 3.2 | 0.00 | 0.00 | 0.00 | 75 | 1014.2 |
| 20260506225809 | 0 | 124 | 0.0 | 0.0 | 0.00 | 0.00 | 0.00 | 76 | 1014.1 |
| 20260506224807 | 0 | 124 | 0.0 | 0.0 | 0.00 | 0.00 | 0.00 | 75 | 1014.1 |
| 20260506223807 | 0 | 124 | 0.0 | 0.0 | 0.00 | 0.00 | 0.00 | 75 | 1014.1 |
| 20260506222806 | 0 | 124 | 0.0 | 3.2 | 0.00 | 0.00 | 0.00 | 73 | 1013.9 |
| 20260506221806 | 0 | 124 | 1.6 | 3.2 | 0.00 | 0.00 | 0.00 | 72 | 1013.7 |
| 20260506220803 | 1 | 111 | 0.0 | 3.2 | 0.00 | 0.00 | 0.00 | 70 | 1013.9 |
| 20260506215810 | 1 | 111 | 0.0 | 0.0 | 0.00 | 0.00 | 0.00 | 67 | 1013.7 |
| 20260506214806 | 1 | 111 | 0.0 | 0.0 | 0.00 | 0.00 | 0.00 | 68 | 1013.6 |
| 20260506213805 | 1 | 111 | 0.0 | 0.0 | 0.00 | 0.00 | 0.00 | 68 | 1013.6 |
| 20260506212749 | 1 | 111 | 0.0 | 1.6 | 0.00 | 0.00 | 0.00 | 66 | 1013.6 |
| 20260506211744 | 2 | 111 | 0.0 | 1.6 | 0.00 | 0.00 | 0.00 | 65 | 1013.7 |
| 20260506210747 | 3 | 102 | 1.6 | 6.4 | 0.00 | 0.00 | 0.00 | 62 | 1013.5 |
| 20260506205735 | 3 | 97 | 1.6 | 4.8 | 0.00 | 0.00 | 0.00 | 58 | 1013.5 |
| 20260506204729 | 3 | 97 | 1.6 | 3.2 | 0.00 | 0.00 | 0.00 | 60 | 1013.4 |
| 20260506203728 | 3 | 97 | 1.6 | 4.8 | 0.00 | 0.00 | 0.00 | 60 | 1013.6 |
| 20260506202728 | 3 | 97 | 1.6 | 3.2 | 0.00 | 0.00 | 0.00 | 60 | 1013.6 |
| 20260506201727 | 3 | 97 | 0.0 | 3.2 | 0.00 | 0.00 | 0.00 | 64 | 1013.6 |
| 20260506200725 | 4 | 97 | 1.6 | 4.8 | 0.00 | 0.00 | 0.00 | 58 | 1013.5 |
| 20260506195713 | 4 | 97 | 3.2 | 6.4 | 0.00 | 0.00 | 0.00 | 57 | 1013.5 |
| 20260506194711 | 5 | 97 | 3.2 | 6.4 | 0.00 | 0.00 | 0.00 | 57 | 1013.4 |
| 20260506193709 | 5 | 119 | 3.2 | 6.4 | 0.00 | 0.00 | 0.00 | 59 | 1013.5 |
| 20260506192706 | 5 | 121 | 3.2 | 6.4 | 0.00 | 0.00 | 0.00 | 59 | 1013.6 |
| 20260506191709 | 5 | 121 | 1.6 | 4.8 | 0.00 | 0.00 | 0.00 | 59 | 1013.4 |
| 20260506190710 | 5 | 117 | 1.6 | 3.2 | 0.00 | 0.00 | 0.00 | 60 | 1013.3 |
| 20260506185705 | 6 | 117 | 1.6 | 3.2 | 0.00 | 0.00 | 0.00 | 57 | 1013.4 |
| 20260506184704 | 6 | 117 | 1.6 | 4.8 | 0.00 | 0.00 | 0.00 | 53 | 1013.2 |
| 20260506183642 | 6 | 117 | 1.6 | 3.2 | 0.00 | 0.00 | 0.00 | 52 | 1013.0 |
| 20260506182638 | 7 | 117 | 1.6 | 3.2 | 0.00 | 0.00 | 0.00 | 51 | 1013.1 |
| 20260506181638 | 7 | 116 | 1.6 | 3.2 | 0.00 | 0.00 | 0.00 | 50 | 1013.0 |
| 20260506180635 | 7 | 120 | 1.6 | 6.4 | 0.00 | 0.00 | 0.00 | 49 | 1012.9 |
| 20260506175634 | 8 | 97 | 1.6 | 6.4 | 0.00 | 0.00 | 0.00 | 47 | 1012.9 |
| 20260506174639 | 8 | 94 | 1.6 | 8.0 | 0.00 | 0.00 | 0.00 | 45 | 1012.8 |
| 20260506173643 | 9 | 105 | 3.2 | 9.7 | 0.00 | 0.00 | 0.00 | 44 | 1012.9 |
| 20260506172635 | 9 | 71 | 3.2 | 8.0 | 0.00 | 0.00 | 0.00 | 42 | 1012.9 |
| 20260506171634 | 10 | 103 | 4.8 | 12.9 | 0.00 | 0.00 | 0.00 | 42 | 1012.9 |
| 20260506170645 | 10 | 140 | 6.4 | 14.5 | 0.00 | 0.00 | 0.00 | 38 | 1012.7 |
| 20260506165632 | 11 | 111 | 4.8 | 14.5 | 0.00 | 0.00 | 0.00 | 39 | 1012.8 |
| 20260506164635 | 11 | 78 | 4.8 | 14.5 | 0.00 | 0.00 | 0.00 | 39 | 1012.8 |
| 20260506163630 | 11 | 119 | 6.4 | 14.5 | 0.00 | 0.00 | 0.00 | 40 | 1012.9 |
| 20260506162633 | 11 | 142 | 4.8 | 14.5 | 0.00 | 0.00 | 0.00 | 39 | 1012.9 |
| 20260506161627 | 11 | 175 | 3.2 | 9.7 | 0.00 | 0.00 | 0.00 | 41 | 1012.9 |
| 20260506160628 | 11 | 86 | 4.8 | 8.0 | 0.00 | 0.00 | 0.00 | 42 | 1012.9 |
| 20260506155622 | 11 | 88 | 4.8 | 16.1 | 0.00 | 0.00 | 0.00 | 41 | 1012.9 |
| 20260506154623 | 11 | 133 | 4.8 | 16.1 | 0.00 | 0.00 | 0.00 | 39 | 1012.8 |
| 20260506153624 | 12 | 85 | 4.8 | 11.3 | 0.00 | 0.00 | 0.00 | 41 | 1013.0 |
| 20260506152621 | 12 | 123 | 3.2 | 9.7 | 0.00 | 0.00 | 0.00 | 39 | 1013.0 |
| 20260506151618 | 12 | 82 | 4.8 | 8.0 | 0.00 | 0.00 | 0.00 | 39 | 1013.0 |
| 20260506150610 | 12 | 104 | 4.8 | 11.3 | 0.00 | 0.00 | 0.00 | 39 | 1013.1 |
| 20260506145608 | 12 | 96 | 4.8 | 11.3 | 0.00 | 0.00 | 0.00 | 38 | 1013.1 |
| 20260506144610 | 12 | 74 | 6.4 | 12.9 | 0.00 | 0.00 | 0.00 | 39 | 1013.1 |
| 20260506143601 | 12 | 94 | 4.8 | 9.7 | 0.00 | 0.00 | 0.00 | 38 | 1013.1 |
| 20260506142609 | 12 | 102 | 4.8 | 9.7 | 0.00 | 0.00 | 0.00 | 37 | 1013.1 |
| 20260506141604 | 12 | 118 | 6.4 | 11.3 | 0.00 | 0.00 | 0.00 | 36 | 1013.1 |
| 20260506140604 | 12 | 81 | 4.8 | 12.9 | 0.00 | 0.00 | 0.00 | 39 | 1013.1 |
| 20260506135608 | 12 | 98 | 4.8 | 14.5 | 0.00 | 0.00 | 0.00 | 38 | 1013.0 |
| 20260506134559 | 12 | 76 | 6.4 | 16.1 | 0.00 | 0.00 | 0.00 | 39 | 1012.8 |
| 20260506133551 | 12 | 89 | 8.0 | 19.3 | 0.00 | 0.00 | 0.00 | 38 | 1012.7 |
| 20260506132556 | 12 | 88 | 4.8 | 12.9 | 0.00 | 0.00 | 0.00 | 41 | 1012.7 |
| 20260506131540 | 12 | 92 | 6.4 | 12.9 | 0.00 | 0.00 | 0.00 | 41 | 1012.7 |
| 20260506130541 | 12 | 103 | 6.4 | 11.3 | 0.00 | 0.00 | 0.00 | 39 | 1012.9 |
| 20260506125541 | 12 | 102 | 4.8 | 11.3 | 0.00 | 0.00 | 0.00 | 40 | 1012.9 |
| 20260506124539 | 12 | 78 | 6.4 | 12.9 | 0.00 | 0.00 | 0.00 | 39 | 1012.9 |
| 20260506123536 | 12 | 97 | 3.2 | 12.9 | 0.00 | 0.00 | 0.00 | 41 | 1012.8 |
| 20260506122535 | 12 | 126 | 4.8 | 9.7 | 0.00 | 0.00 | 0.00 | 42 | 1012.8 |
| 20260506121534 | 13 | 69 | 8.0 | 19.3 | 0.00 | 0.00 | 0.00 | 42 | 1012.9 |
| 20260506120534 | 13 | 84 | 6.4 | 11.3 | 0.00 | 0.00 | 0.00 | 42 | 1013.0 |
| 20260506115537 | 12 | 145 | 6.4 | 12.9 | 0.00 | 0.00 | 0.00 | 43 | 1013.0 |
| 20260506114536 | 12 | 90 | 6.4 | 14.5 | 0.00 | 0.00 | 0.00 | 42 | 1012.9 |
| 20260506113524 | 12 | 125 | 4.8 | 12.9 | 0.00 | 0.00 | 0.00 | 43 | 1013.0 |
| 20260506112520 | 12 | 87 | 6.4 | 16.1 | 0.00 | 0.00 | 0.00 | 41 | 1013.0 |
| 20260506111522 | 12 | 74 | 4.8 | 16.1 | 0.00 | 0.00 | 0.00 | 43 | 1013.1 |
| 20260506110532 | 12 | 88 | 6.4 | 14.5 | 0.00 | 0.00 | 0.00 | 41 | 1013.1 |
| 20260506105512 | 12 | 140 | 3.2 | 16.1 | 0.00 | 0.00 | 0.00 | 42 | 1013.1 |
| 20260506104513 | 12 | 76 | 6.4 | 14.5 | 0.00 | 0.00 | 0.00 | 39 | 1013.2 |
| 20260506103512 | 12 | 71 | 4.8 | 16.1 | 0.00 | 0.00 | 0.00 | 43 | 1013.4 |
| 20260506102508 | 11 | 98 | 6.4 | 17.7 | 0.00 | 0.00 | 0.00 | 44 | 1013.3 |
| 20260506101513 | 11 | 80 | 8.0 | 16.1 | 0.00 | 0.00 | 0.00 | 44 | 1013.2 |
| 20260506100505 | 11 | 95 | 6.4 | 12.9 | 0.00 | 0.00 | 0.00 | 43 | 1013.2 |
| 20260506095508 | 11 | 78 | 6.4 | 19.3 | 0.00 | 0.00 | 0.00 | 45 | 1013.2 |
| 20260506094507 | 11 | 129 | 6.4 | 12.9 | 0.00 | 0.00 | 0.00 | 42 | 1013.1 |
| 20260506093507 | 11 | 111 | 8.0 | 16.1 | 0.00 | 0.00 | 0.00 | 42 | 1013.0 |
| 20260506092507 | 11 | 75 | 9.7 | 19.3 | 0.00 | 0.00 | 0.00 | 45 | 1013.0 |
| 20260506091509 | 11 | 76 | 6.4 | 12.9 | 0.00 | 0.00 | 0.00 | 45 | 1013.2 |
| 20260506090507 | 11 | 78 | 9.7 | 16.1 | 0.00 | 0.00 | 0.00 | 44 | 1013.3 |
| 20260506085508 | 11 | 99 | 4.8 | 12.9 | 0.00 | 0.00 | 0.00 | 43 | 1013.3 |